sensor_id;sensor_type;location;lat;lon;timestamp;P1;durP1;ratioP1;P2;durP2;ratioP2
13408;SDS011;6775;49.574;11.170;2023-06-22T00:00:53;5.87;;;5.27;;
13408;SDS011;6775;49.574;11.170;2023-06-22T00:03:22;6.57;;;5.47;;
13408;SDS011;6775;49.574;11.170;2023-06-22T00:05:51;5.97;;;5.37;;
13408;SDS011;6775;49.574;11.170;2023-06-22T00:08:19;5.93;;;5.33;;
13408;SDS011;6775;49.574;11.170;2023-06-22T00:10:47;7.17;;;5.80;;
13408;SDS011;6775;49.574;11.170;2023-06-22T00:13:16;7.37;;;5.40;;
13408;SDS011;6775;49.574;11.170;2023-06-22T00:15:45;6.10;;;5.50;;
13408;SDS011;6775;49.574;11.170;2023-06-22T00:18:13;6.77;;;5.87;;
13408;SDS011;6775;49.574;11.170;2023-06-22T00:20:41;5.90;;;5.30;;
13408;SDS011;6775;49.574;11.170;2023-06-22T00:23:11;6.47;;;5.43;;
13408;SDS011;6775;49.574;11.170;2023-06-22T00:25:42;5.47;;;4.97;;
13408;SDS011;6775;49.574;11.170;2023-06-22T00:28:09;7.20;;;5.87;;
13408;SDS011;6775;49.574;11.170;2023-06-22T00:30:37;6.67;;;5.13;;
13408;SDS011;6775;49.574;11.170;2023-06-22T00:33:06;5.63;;;5.13;;
13408;SDS011;6775;49.574;11.170;2023-06-22T00:35:34;5.73;;;5.20;;
13408;SDS011;6775;49.574;11.170;2023-06-22T00:38:02;16.70;;;5.77;;
13408;SDS011;6775;49.574;11.170;2023-06-22T00:40:31;5.33;;;4.83;;
13408;SDS011;6775;49.574;11.170;2023-06-22T00:42:59;6.13;;;4.77;;
13408;SDS011;6775;49.574;11.170;2023-06-22T00:45:27;5.83;;;5.33;;
13408;SDS011;6775;49.574;11.170;2023-06-22T00:47:56;5.93;;;5.23;;
13408;SDS011;6775;49.574;11.170;2023-06-22T00:50:26;6.23;;;5.30;;
13408;SDS011;6775;49.574;11.170;2023-06-22T00:53:00;5.50;;;5.00;;
13408;SDS011;6775;49.574;11.170;2023-06-22T00:55:33;5.97;;;5.37;;
13408;SDS011;6775;49.574;11.170;2023-06-22T00:58:04;7.03;;;5.63;;
13408;SDS011;6775;49.574;11.170;2023-06-22T01:00:36;5.43;;;4.80;;
13408;SDS011;6775;49.574;11.170;2023-06-22T01:03:05;5.93;;;5.20;;
13408;SDS011;6775;49.574;11.170;2023-06-22T01:05:37;5.30;;;4.80;;
13408;SDS011;6775;49.574;11.170;2023-06-22T01:08:10;5.60;;;5.03;;
13408;SDS011;6775;49.574;11.170;2023-06-22T01:10:44;5.90;;;5.30;;
13408;SDS011;6775;49.574;11.170;2023-06-22T01:13:19;6.47;;;5.13;;
13408;SDS011;6775;49.574;11.170;2023-06-22T01:15:57;5.73;;;4.77;;
13408;SDS011;6775;49.574;11.170;2023-06-22T01:18:29;6.10;;;5.37;;
13408;SDS011;6775;49.574;11.170;2023-06-22T01:21:04;6.37;;;5.77;;
13408;SDS011;6775;49.574;11.170;2023-06-22T01:23:39;8.73;;;5.37;;
13408;SDS011;6775;49.574;11.170;2023-06-22T01:26:35;8.80;;;5.13;;
13408;SDS011;6775;49.574;11.170;2023-06-22T01:29:07;10.20;;;5.50;;
13408;SDS011;6775;49.574;11.170;2023-06-22T01:31:38;6.07;;;5.50;;
13408;SDS011;6775;49.574;11.170;2023-06-22T01:34:08;7.87;;;5.70;;
13408;SDS011;6775;49.574;11.170;2023-06-22T01:36:36;7.70;;;6.17;;
13408;SDS011;6775;49.574;11.170;2023-06-22T01:39:06;8.33;;;6.40;;
13408;SDS011;6775;49.574;11.170;2023-06-22T01:41:36;10.73;;;7.13;;
13408;SDS011;6775;49.574;11.170;2023-06-22T01:44:07;7.83;;;5.97;;
13408;SDS011;6775;49.574;11.170;2023-06-22T01:46:36;9.20;;;6.20;;
13408;SDS011;6775;49.574;11.170;2023-06-22T01:49:05;7.03;;;6.33;;
13408;SDS011;6775;49.574;11.170;2023-06-22T01:51:34;7.83;;;6.90;;
13408;SDS011;6775;49.574;11.170;2023-06-22T01:54:02;8.23;;;6.30;;
13408;SDS011;6775;49.574;11.170;2023-06-22T01:56:30;7.57;;;6.10;;
13408;SDS011;6775;49.574;11.170;2023-06-22T01:59:00;7.03;;;5.90;;
13408;SDS011;6775;49.574;11.170;2023-06-22T02:01:36;7.47;;;5.67;;
13408;SDS011;6775;49.574;11.170;2023-06-22T02:04:08;6.03;;;5.40;;
13408;SDS011;6775;49.574;11.170;2023-06-22T02:06:42;6.53;;;5.13;;
13408;SDS011;6775;49.574;11.170;2023-06-22T02:09:14;6.33;;;5.50;;
13408;SDS011;6775;49.574;11.170;2023-06-22T02:11:44;6.90;;;5.07;;
13408;SDS011;6775;49.574;11.170;2023-06-22T02:14:14;5.03;;;4.53;;
13408;SDS011;6775;49.574;11.170;2023-06-22T02:16:46;5.67;;;4.73;;
13408;SDS011;6775;49.574;11.170;2023-06-22T02:19:14;5.13;;;4.63;;
13408;SDS011;6775;49.574;11.170;2023-06-22T02:21:44;5.77;;;5.27;;
13408;SDS011;6775;49.574;11.170;2023-06-22T02:24:12;5.33;;;4.80;;
13408;SDS011;6775;49.574;11.170;2023-06-22T02:26:40;7.07;;;6.10;;
13408;SDS011;6775;49.574;11.170;2023-06-22T02:29:10;7.07;;;5.43;;
13408;SDS011;6775;49.574;11.170;2023-06-22T02:31:38;8.30;;;5.77;;
13408;SDS011;6775;49.574;11.170;2023-06-22T02:34:08;8.60;;;6.03;;
13408;SDS011;6775;49.574;11.170;2023-06-22T02:36:35;6.70;;;5.57;;
13408;SDS011;6775;49.574;11.170;2023-06-22T02:39:03;7.97;;;6.07;;
13408;SDS011;6775;49.574;11.170;2023-06-22T02:41:31;6.87;;;5.73;;
13408;SDS011;6775;49.574;11.170;2023-06-22T02:43:59;7.13;;;5.67;;
13408;SDS011;6775;49.574;11.170;2023-06-22T02:46:27;5.90;;;5.30;;
13408;SDS011;6775;49.574;11.170;2023-06-22T02:48:54;7.30;;;5.57;;
13408;SDS011;6775;49.574;11.170;2023-06-22T02:51:24;5.73;;;5.13;;
13408;SDS011;6775;49.574;11.170;2023-06-22T02:53:52;6.23;;;5.30;;
13408;SDS011;6775;49.574;11.170;2023-06-22T02:56:23;5.73;;;5.20;;
13408;SDS011;6775;49.574;11.170;2023-06-22T02:58:51;5.77;;;5.23;;
13408;SDS011;6775;49.574;11.170;2023-06-22T03:01:19;5.03;;;4.53;;
13408;SDS011;6775;49.574;11.170;2023-06-22T03:03:50;5.20;;;4.23;;
13408;SDS011;6775;49.574;11.170;2023-06-22T03:06:18;5.20;;;4.70;;
13408;SDS011;6775;49.574;11.170;2023-06-22T03:08:51;5.43;;;4.80;;
13408;SDS011;6775;49.574;11.170;2023-06-22T03:11:19;4.40;;;4.00;;
13408;SDS011;6775;49.574;11.170;2023-06-22T03:13:47;5.00;;;4.50;;
13408;SDS011;6775;49.574;11.170;2023-06-22T03:16:15;5.97;;;5.37;;
13408;SDS011;6775;49.574;11.170;2023-06-22T03:18:42;6.37;;;5.73;;
13408;SDS011;6775;49.574;11.170;2023-06-22T03:21:10;5.77;;;5.23;;
13408;SDS011;6775;49.574;11.170;2023-06-22T03:23:38;6.53;;;5.90;;
13408;SDS011;6775;49.574;11.170;2023-06-22T03:26:08;7.40;;;6.00;;
13408;SDS011;6775;49.574;11.170;2023-06-22T03:28:36;5.77;;;5.20;;
13408;SDS011;6775;49.574;11.170;2023-06-22T03:31:04;6.77;;;5.53;;
13408;SDS011;6775;49.574;11.170;2023-06-22T03:33:33;6.93;;;5.60;;
13408;SDS011;6775;49.574;11.170;2023-06-22T03:36:01;7.93;;;6.20;;
13408;SDS011;6775;49.574;11.170;2023-06-22T03:38:29;7.17;;;6.13;;
13408;SDS011;6775;49.574;11.170;2023-06-22T03:40:57;9.77;;;6.27;;
13408;SDS011;6775;49.574;11.170;2023-06-22T03:43:26;7.23;;;6.20;;
13408;SDS011;6775;49.574;11.170;2023-06-22T03:45:54;8.93;;;7.07;;
13408;SDS011;6775;49.574;11.170;2023-06-22T03:48:22;9.50;;;7.67;;
13408;SDS011;6775;49.574;11.170;2023-06-22T03:50:50;7.87;;;7.07;;
13408;SDS011;6775;49.574;11.170;2023-06-22T03:53:17;6.53;;;5.93;;
13408;SDS011;6775;49.574;11.170;2023-06-22T03:55:48;7.90;;;7.10;;
13408;SDS011;6775;49.574;11.170;2023-06-22T03:58:17;9.30;;;7.20;;
13408;SDS011;6775;49.574;11.170;2023-06-22T04:00:47;8.90;;;6.87;;
13408;SDS011;6775;49.574;11.170;2023-06-22T04:03:16;9.50;;;7.10;;
13408;SDS011;6775;49.574;11.170;2023-06-22T04:05:45;8.73;;;7.03;;
13408;SDS011;6775;49.574;11.170;2023-06-22T04:08:13;9.87;;;7.70;;
13408;SDS011;6775;49.574;11.170;2023-06-22T04:10:41;7.97;;;7.17;;
13408;SDS011;6775;49.574;11.170;2023-06-22T04:13:09;9.50;;;8.03;;
13408;SDS011;6775;49.574;11.170;2023-06-22T04:15:37;10.97;;;7.87;;
13408;SDS011;6775;49.574;11.170;2023-06-22T04:18:06;9.83;;;7.47;;
13408;SDS011;6775;49.574;11.170;2023-06-22T04:20:34;10.47;;;8.90;;
13408;SDS011;6775;49.574;11.170;2023-06-22T04:23:02;8.30;;;7.30;;
13408;SDS011;6775;49.574;11.170;2023-06-22T04:25:30;9.70;;;7.57;;
13408;SDS011;6775;49.574;11.170;2023-06-22T04:27:58;8.70;;;7.40;;
13408;SDS011;6775;49.574;11.170;2023-06-22T04:30:29;8.20;;;7.40;;
13408;SDS011;6775;49.574;11.170;2023-06-22T04:32:57;8.80;;;7.10;;
13408;SDS011;6775;49.574;11.170;2023-06-22T04:35:27;11.23;;;8.37;;
13408;SDS011;6775;49.574;11.170;2023-06-22T04:37:55;10.90;;;8.37;;
13408;SDS011;6775;49.574;11.170;2023-06-22T04:40:25;10.93;;;8.60;;
13408;SDS011;6775;49.574;11.170;2023-06-22T04:42:53;10.33;;;8.40;;
13408;SDS011;6775;49.574;11.170;2023-06-22T04:45:21;9.83;;;8.23;;
13408;SDS011;6775;49.574;11.170;2023-06-22T04:47:49;9.27;;;7.43;;
13408;SDS011;6775;49.574;11.170;2023-06-22T04:50:18;10.97;;;8.43;;
13408;SDS011;6775;49.574;11.170;2023-06-22T04:52:48;9.47;;;8.47;;
13408;SDS011;6775;49.574;11.170;2023-06-22T04:55:16;10.63;;;8.40;;
13408;SDS011;6775;49.574;11.170;2023-06-22T04:57:45;8.93;;;7.70;;
13408;SDS011;6775;49.574;11.170;2023-06-22T05:00:15;10.37;;;8.13;;
13408;SDS011;6775;49.574;11.170;2023-06-22T05:02:45;9.80;;;8.80;;
13408;SDS011;6775;49.574;11.170;2023-06-22T05:05:14;10.00;;;8.13;;
13408;SDS011;6775;49.574;11.170;2023-06-22T05:07:43;9.73;;;8.33;;
13408;SDS011;6775;49.574;11.170;2023-06-22T05:10:15;9.60;;;8.10;;
13408;SDS011;6775;49.574;11.170;2023-06-22T05:12:42;9.40;;;8.10;;
13408;SDS011;6775;49.574;11.170;2023-06-22T05:15:10;9.27;;;8.33;;
13408;SDS011;6775;49.574;11.170;2023-06-22T05:17:38;10.60;;;9.50;;
13408;SDS011;6775;49.574;11.170;2023-06-22T05:20:09;10.53;;;8.43;;
13408;SDS011;6775;49.574;11.170;2023-06-22T05:22:38;9.77;;;8.60;;
13408;SDS011;6775;49.574;11.170;2023-06-22T05:25:08;9.63;;;8.10;;
13408;SDS011;6775;49.574;11.170;2023-06-22T05:27:38;11.10;;;8.63;;
13408;SDS011;6775;49.574;11.170;2023-06-22T05:30:07;9.43;;;7.50;;
13408;SDS011;6775;49.574;11.170;2023-06-22T05:32:35;11.20;;;7.80;;
13408;SDS011;6775;49.574;11.170;2023-06-22T05:35:04;8.43;;;7.33;;
13408;SDS011;6775;49.574;11.170;2023-06-22T05:37:32;11.97;;;9.03;;
13408;SDS011;6775;49.574;11.170;2023-06-22T05:40:00;9.57;;;7.67;;
13408;SDS011;6775;49.574;11.170;2023-06-22T05:42:28;8.70;;;7.70;;
13408;SDS011;6775;49.574;11.170;2023-06-22T05:44:58;8.00;;;7.13;;
13408;SDS011;6775;49.574;11.170;2023-06-22T05:47:26;7.50;;;6.67;;
13408;SDS011;6775;49.574;11.170;2023-06-22T05:49:54;9.63;;;7.40;;
13408;SDS011;6775;49.574;11.170;2023-06-22T05:52:22;8.40;;;6.70;;
13408;SDS011;6775;49.574;11.170;2023-06-22T05:54:49;8.30;;;7.47;;
13408;SDS011;6775;49.574;11.170;2023-06-22T05:57:17;8.07;;;7.27;;
13408;SDS011;6775;49.574;11.170;2023-06-22T05:59:47;7.77;;;6.83;;
13408;SDS011;6775;49.574;11.170;2023-06-22T06:02:17;9.77;;;7.27;;
13408;SDS011;6775;49.574;11.170;2023-06-22T06:04:45;7.73;;;6.60;;
13408;SDS011;6775;49.574;11.170;2023-06-22T06:07:13;7.37;;;6.60;;
13408;SDS011;6775;49.574;11.170;2023-06-22T06:09:41;8.20;;;6.97;;
13408;SDS011;6775;49.574;11.170;2023-06-22T06:12:09;7.70;;;6.90;;
13408;SDS011;6775;49.574;11.170;2023-06-22T06:14:37;7.43;;;6.57;;
13408;SDS011;6775;49.574;11.170;2023-06-22T06:17:05;7.07;;;6.47;;
13408;SDS011;6775;49.574;11.170;2023-06-22T06:19:34;8.27;;;6.70;;
13408;SDS011;6775;49.574;11.170;2023-06-22T06:22:02;8.40;;;7.60;;
13408;SDS011;6775;49.574;11.170;2023-06-22T06:24:30;7.37;;;6.67;;
13408;SDS011;6775;49.574;11.170;2023-06-22T06:26:58;7.10;;;6.33;;
13408;SDS011;6775;49.574;11.170;2023-06-22T06:29:26;7.43;;;6.70;;
13408;SDS011;6775;49.574;11.170;2023-06-22T06:31:54;7.57;;;6.87;;
13408;SDS011;6775;49.574;11.170;2023-06-22T06:34:22;7.10;;;6.40;;
13408;SDS011;6775;49.574;11.170;2023-06-22T06:36:52;10.70;;;6.90;;
13408;SDS011;6775;49.574;11.170;2023-06-22T06:39:20;7.37;;;6.57;;
13408;SDS011;6775;49.574;11.170;2023-06-22T06:41:47;10.37;;;6.60;;
13408;SDS011;6775;49.574;11.170;2023-06-22T06:44:15;8.80;;;7.17;;
13408;SDS011;6775;49.574;11.170;2023-06-22T06:46:43;8.97;;;6.97;;
13408;SDS011;6775;49.574;11.170;2023-06-22T06:49:11;7.77;;;6.50;;
13408;SDS011;6775;49.574;11.170;2023-06-22T06:51:39;8.63;;;6.93;;
13408;SDS011;6775;49.574;11.170;2023-06-22T06:54:08;8.83;;;6.33;;
13408;SDS011;6775;49.574;11.170;2023-06-22T06:56:36;6.47;;;5.87;;
13408;SDS011;6775;49.574;11.170;2023-06-22T06:59:04;7.63;;;6.57;;
13408;SDS011;6775;49.574;11.170;2023-06-22T07:01:32;7.77;;;5.80;;
13408;SDS011;6775;49.574;11.170;2023-06-22T07:04:02;7.40;;;6.30;;
13408;SDS011;6775;49.574;11.170;2023-06-22T07:06:30;7.60;;;6.33;;
13408;SDS011;6775;49.574;11.170;2023-06-22T07:08:59;6.97;;;5.80;;
13408;SDS011;6775;49.574;11.170;2023-06-22T07:11:28;6.77;;;6.03;;
13408;SDS011;6775;49.574;11.170;2023-06-22T07:13:56;8.33;;;6.40;;
13408;SDS011;6775;49.574;11.170;2023-06-22T07:16:25;7.33;;;5.90;;
13408;SDS011;6775;49.574;11.170;2023-06-22T07:18:54;7.20;;;6.37;;
13408;SDS011;6775;49.574;11.170;2023-06-22T07:21:22;6.90;;;5.87;;
13408;SDS011;6775;49.574;11.170;2023-06-22T07:23:49;6.07;;;5.47;;
13408;SDS011;6775;49.574;11.170;2023-06-22T07:26:17;6.20;;;5.60;;
13408;SDS011;6775;49.574;11.170;2023-06-22T07:28:46;7.13;;;5.37;;
13408;SDS011;6775;49.574;11.170;2023-06-22T07:31:14;6.93;;;5.50;;
13408;SDS011;6775;49.574;11.170;2023-06-22T07:33:42;5.27;;;4.77;;
13408;SDS011;6775;49.574;11.170;2023-06-22T07:36:10;6.47;;;5.40;;
13408;SDS011;6775;49.574;11.170;2023-06-22T07:38:38;5.53;;;5.03;;
13408;SDS011;6775;49.574;11.170;2023-06-22T07:41:06;6.37;;;5.77;;
13408;SDS011;6775;49.574;11.170;2023-06-22T07:43:34;6.97;;;5.50;;
13408;SDS011;6775;49.574;11.170;2023-06-22T07:46:04;5.83;;;5.23;;
13408;SDS011;6775;49.574;11.170;2023-06-22T07:48:32;5.73;;;5.13;;
13408;SDS011;6775;49.574;11.170;2023-06-22T07:51:03;5.57;;;5.03;;
13408;SDS011;6775;49.574;11.170;2023-06-22T07:53:32;6.10;;;5.20;;
13408;SDS011;6775;49.574;11.170;2023-06-22T07:56:00;7.50;;;5.33;;
13408;SDS011;6775;49.574;11.170;2023-06-22T07:58:33;5.97;;;5.30;;
13408;SDS011;6775;49.574;11.170;2023-06-22T08:01:01;5.40;;;4.90;;
13408;SDS011;6775;49.574;11.170;2023-06-22T08:03:30;6.43;;;5.00;;
13408;SDS011;6775;49.574;11.170;2023-06-22T08:05:58;8.87;;;4.90;;
13408;SDS011;6775;49.574;11.170;2023-06-22T08:08:26;6.50;;;5.50;;
13408;SDS011;6775;49.574;11.170;2023-06-22T08:10:54;6.80;;;4.90;;
13408;SDS011;6775;49.574;11.170;2023-06-22T08:13:22;5.23;;;4.73;;
13408;SDS011;6775;49.574;11.170;2023-06-22T08:15:50;5.97;;;4.87;;
13408;SDS011;6775;49.574;11.170;2023-06-22T08:18:19;6.20;;;4.73;;
13408;SDS011;6775;49.574;11.170;2023-06-22T08:20:48;5.87;;;5.03;;
13408;SDS011;6775;49.574;11.170;2023-06-22T08:23:16;5.70;;;5.17;;
13408;SDS011;6775;49.574;11.170;2023-06-22T08:25:44;5.20;;;4.70;;
13408;SDS011;6775;49.574;11.170;2023-06-22T08:28:14;6.37;;;5.10;;
13408;SDS011;6775;49.574;11.170;2023-06-22T08:30:42;5.80;;;5.20;;
13408;SDS011;6775;49.574;11.170;2023-06-22T08:33:09;8.37;;;5.00;;
13408;SDS011;6775;49.574;11.170;2023-06-22T08:35:54;5.23;;;4.73;;
13408;SDS011;6775;49.574;11.170;2023-06-22T08:38:22;6.90;;;4.83;;
13408;SDS011;6775;49.574;11.170;2023-06-22T08:40:49;4.53;;;4.13;;
13408;SDS011;6775;49.574;11.170;2023-06-22T08:43:17;6.43;;;4.90;;
13408;SDS011;6775;49.574;11.170;2023-06-22T08:45:45;5.07;;;4.57;;
13408;SDS011;6775;49.574;11.170;2023-06-22T08:48:13;6.20;;;4.83;;
13408;SDS011;6775;49.574;11.170;2023-06-22T08:50:41;6.43;;;5.73;;
13408;SDS011;6775;49.574;11.170;2023-06-22T08:53:10;5.10;;;4.57;;
13408;SDS011;6775;49.574;11.170;2023-06-22T08:55:38;6.60;;;5.20;;
13408;SDS011;6775;49.574;11.170;2023-06-22T08:58:06;6.47;;;5.23;;
13408;SDS011;6775;49.574;11.170;2023-06-22T09:00:34;7.23;;;4.87;;
13408;SDS011;6775;49.574;11.170;2023-06-22T09:03:02;6.43;;;5.20;;
13408;SDS011;6775;49.574;11.170;2023-06-22T09:05:31;5.67;;;4.43;;
13408;SDS011;6775;49.574;11.170;2023-06-22T09:07:59;6.00;;;4.60;;
13408;SDS011;6775;49.574;11.170;2023-06-22T09:10:28;9.57;;;4.53;;
13408;SDS011;6775;49.574;11.170;2023-06-22T09:12:57;5.30;;;4.40;;
13408;SDS011;6775;49.574;11.170;2023-06-22T09:15:25;7.13;;;4.60;;
13408;SDS011;6775;49.574;11.170;2023-06-22T09:17:53;6.57;;;4.63;;
13408;SDS011;6775;49.574;11.170;2023-06-22T09:20:21;5.30;;;4.63;;
13408;SDS011;6775;49.574;11.170;2023-06-22T09:22:49;5.80;;;4.43;;
13408;SDS011;6775;49.574;11.170;2023-06-22T09:25:17;5.33;;;4.43;;
13408;SDS011;6775;49.574;11.170;2023-06-22T09:27:48;5.40;;;4.57;;
13408;SDS011;6775;49.574;11.170;2023-06-22T09:30:16;6.93;;;4.33;;
13408;SDS011;6775;49.574;11.170;2023-06-22T09:32:46;6.87;;;4.70;;
13408;SDS011;6775;49.574;11.170;2023-06-22T09:35:13;5.80;;;5.07;;
13408;SDS011;6775;49.574;11.170;2023-06-22T09:37:41;6.23;;;4.60;;
13408;SDS011;6775;49.574;11.170;2023-06-22T09:40:10;6.73;;;5.07;;
13408;SDS011;6775;49.574;11.170;2023-06-22T09:42:41;7.27;;;4.73;;
13408;SDS011;6775;49.574;11.170;2023-06-22T09:45:10;8.17;;;4.97;;
13408;SDS011;6775;49.574;11.170;2023-06-22T09:47:38;7.73;;;5.10;;
13408;SDS011;6775;49.574;11.170;2023-06-22T09:50:06;5.90;;;4.40;;
13408;SDS011;6775;49.574;11.170;2023-06-22T09:52:34;5.07;;;4.47;;
13408;SDS011;6775;49.574;11.170;2023-06-22T09:55:06;7.83;;;5.10;;
13408;SDS011;6775;49.574;11.170;2023-06-22T09:57:34;6.70;;;5.10;;
13408;SDS011;6775;49.574;11.170;2023-06-22T10:00:02;6.83;;;4.40;;
13408;SDS011;6775;49.574;11.170;2023-06-22T10:02:36;5.20;;;4.70;;
13408;SDS011;6775;49.574;11.170;2023-06-22T10:05:04;6.87;;;5.23;;
13408;SDS011;6775;49.574;11.170;2023-06-22T10:07:34;6.57;;;4.67;;
13408;SDS011;6775;49.574;11.170;2023-06-22T10:10:06;7.20;;;5.30;;
13408;SDS011;6775;49.574;11.170;2023-06-22T10:12:35;7.23;;;4.90;;
13408;SDS011;6775;49.574;11.170;2023-06-22T10:15:03;7.80;;;5.70;;
13408;SDS011;6775;49.574;11.170;2023-06-22T10:17:32;7.57;;;4.50;;
13408;SDS011;6775;49.574;11.170;2023-06-22T10:20:01;9.00;;;4.70;;
13408;SDS011;6775;49.574;11.170;2023-06-22T10:22:33;5.77;;;5.17;;
13408;SDS011;6775;49.574;11.170;2023-06-22T10:25:00;7.30;;;4.87;;
13408;SDS011;6775;49.574;11.170;2023-06-22T10:27:28;5.90;;;4.97;;
13408;SDS011;6775;49.574;11.170;2023-06-22T10:29:57;5.50;;;4.77;;
13408;SDS011;6775;49.574;11.170;2023-06-22T10:32:25;5.40;;;4.20;;
13408;SDS011;6775;49.574;11.170;2023-06-22T10:34:54;6.10;;;4.60;;
13408;SDS011;6775;49.574;11.170;2023-06-22T10:37:26;5.50;;;4.77;;
13408;SDS011;6775;49.574;11.170;2023-06-22T10:39:54;5.77;;;4.77;;
13408;SDS011;6775;49.574;11.170;2023-06-22T10:42:21;5.07;;;4.57;;
13408;SDS011;6775;49.574;11.170;2023-06-22T10:44:49;4.43;;;4.03;;
13408;SDS011;6775;49.574;11.170;2023-06-22T10:47:17;4.83;;;4.33;;
13408;SDS011;6775;49.574;11.170;2023-06-22T10:49:45;5.13;;;4.53;;
13408;SDS011;6775;49.574;11.170;2023-06-22T10:52:13;6.77;;;5.17;;
13408;SDS011;6775;49.574;11.170;2023-06-22T10:54:42;5.60;;;5.07;;
13408;SDS011;6775;49.574;11.170;2023-06-22T10:57:10;4.93;;;4.33;;
13408;SDS011;6775;49.574;11.170;2023-06-22T10:59:38;4.83;;;4.07;;
13408;SDS011;6775;49.574;11.170;2023-06-22T11:02:05;5.53;;;4.33;;
13408;SDS011;6775;49.574;11.170;2023-06-22T11:04:33;6.93;;;4.53;;
13408;SDS011;6775;49.574;11.170;2023-06-22T11:07:01;6.33;;;4.43;;
13408;SDS011;6775;49.574;11.170;2023-06-22T11:09:29;4.70;;;4.30;;
13408;SDS011;6775;49.574;11.170;2023-06-22T11:11:59;5.03;;;4.27;;
13408;SDS011;6775;49.574;11.170;2023-06-22T11:14:27;7.43;;;4.50;;
13408;SDS011;6775;49.574;11.170;2023-06-22T11:16:55;6.50;;;4.63;;
13408;SDS011;6775;49.574;11.170;2023-06-22T11:19:23;6.83;;;4.40;;
13408;SDS011;6775;49.574;11.170;2023-06-22T11:21:51;4.87;;;3.80;;
13408;SDS011;6775;49.574;11.170;2023-06-22T11:24:18;6.73;;;4.00;;
13408;SDS011;6775;49.574;11.170;2023-06-22T11:26:46;5.07;;;4.07;;
13408;SDS011;6775;49.574;11.170;2023-06-22T11:29:16;4.93;;;4.23;;
13408;SDS011;6775;49.574;11.170;2023-06-22T11:31:57;4.50;;;4.00;;
13408;SDS011;6775;49.574;11.170;2023-06-22T11:34:25;5.33;;;4.20;;
13408;SDS011;6775;49.574;11.170;2023-06-22T11:36:54;6.47;;;4.60;;
13408;SDS011;6775;49.574;11.170;2023-06-22T11:39:22;7.23;;;4.50;;
13408;SDS011;6775;49.574;11.170;2023-06-22T11:42:06;7.37;;;5.30;;
13408;SDS011;6775;49.574;11.170;2023-06-22T11:44:36;6.03;;;4.17;;
13408;SDS011;6775;49.574;11.170;2023-06-22T11:47:04;4.77;;;4.27;;
13408;SDS011;6775;49.574;11.170;2023-06-22T11:49:32;6.13;;;4.20;;
13408;SDS011;6775;49.574;11.170;2023-06-22T11:52:00;11.40;;;4.03;;
13408;SDS011;6775;49.574;11.170;2023-06-22T11:54:28;10.67;;;4.13;;
13408;SDS011;6775;49.574;11.170;2023-06-22T11:56:56;4.77;;;4.17;;
13408;SDS011;6775;49.574;11.170;2023-06-22T11:59:24;5.80;;;4.27;;
13408;SDS011;6775;49.574;11.170;2023-06-22T12:01:53;6.23;;;4.90;;
13408;SDS011;6775;49.574;11.170;2023-06-22T12:04:21;8.93;;;5.03;;
13408;SDS011;6775;49.574;11.170;2023-06-22T12:06:49;6.33;;;4.57;;
13408;SDS011;6775;49.574;11.170;2023-06-22T12:09:17;5.53;;;4.33;;
13408;SDS011;6775;49.574;11.170;2023-06-22T12:11:44;7.27;;;4.60;;
13408;SDS011;6775;49.574;11.170;2023-06-22T12:14:12;4.50;;;3.63;;
13408;SDS011;6775;49.574;11.170;2023-06-22T12:16:40;6.90;;;4.37;;
13408;SDS011;6775;49.574;11.170;2023-06-22T12:19:11;9.90;;;5.20;;
13408;SDS011;6775;49.574;11.170;2023-06-22T12:21:39;5.77;;;4.53;;
13408;SDS011;6775;49.574;11.170;2023-06-22T12:24:07;6.80;;;4.60;;
13408;SDS011;6775;49.574;11.170;2023-06-22T12:26:35;9.37;;;4.67;;
13408;SDS011;6775;49.574;11.170;2023-06-22T12:29:03;9.03;;;4.80;;
13408;SDS011;6775;49.574;11.170;2023-06-22T12:31:31;4.83;;;4.43;;
13408;SDS011;6775;49.574;11.170;2023-06-22T12:33:59;7.17;;;4.47;;
13408;SDS011;6775;49.574;11.170;2023-06-22T12:36:28;6.27;;;5.10;;
13408;SDS011;6775;49.574;11.170;2023-06-22T12:38:56;6.27;;;4.43;;
13408;SDS011;6775;49.574;11.170;2023-06-22T12:41:24;5.63;;;4.23;;
13408;SDS011;6775;49.574;11.170;2023-06-22T12:43:52;5.57;;;4.20;;
13408;SDS011;6775;49.574;11.170;2023-06-22T12:46:20;7.57;;;5.00;;
13408;SDS011;6775;49.574;11.170;2023-06-22T12:48:47;7.60;;;4.60;;
13408;SDS011;6775;49.574;11.170;2023-06-22T12:51:20;8.33;;;4.80;;
13408;SDS011;6775;49.574;11.170;2023-06-22T12:53:49;7.10;;;4.47;;
13408;SDS011;6775;49.574;11.170;2023-06-22T12:56:17;6.43;;;4.33;;
13408;SDS011;6775;49.574;11.170;2023-06-22T12:58:45;5.37;;;4.20;;
13408;SDS011;6775;49.574;11.170;2023-06-22T13:01:13;8.87;;;4.17;;
13408;SDS011;6775;49.574;11.170;2023-06-22T13:03:41;7.53;;;4.17;;
13408;SDS011;6775;49.574;11.170;2023-06-22T13:06:09;8.00;;;4.77;;
13408;SDS011;6775;49.574;11.170;2023-06-22T13:08:37;7.80;;;4.37;;
13408;SDS011;6775;49.574;11.170;2023-06-22T13:11:09;5.50;;;4.23;;
13408;SDS011;6775;49.574;11.170;2023-06-22T13:13:38;7.27;;;4.27;;
13408;SDS011;6775;49.574;11.170;2023-06-22T13:16:06;8.43;;;4.73;;
13408;SDS011;6775;49.574;11.170;2023-06-22T13:18:34;7.83;;;4.90;;
13408;SDS011;6775;49.574;11.170;2023-06-22T13:21:02;6.97;;;4.60;;
13408;SDS011;6775;49.574;11.170;2023-06-22T13:23:30;9.40;;;4.57;;
13408;SDS011;6775;49.574;11.170;2023-06-22T13:25:58;7.23;;;4.53;;
13408;SDS011;6775;49.574;11.170;2023-06-22T13:28:28;8.77;;;5.27;;
13408;SDS011;6775;49.574;11.170;2023-06-22T13:30:56;7.33;;;5.00;;
13408;SDS011;6775;49.574;11.170;2023-06-22T13:33:24;7.40;;;4.57;;
13408;SDS011;6775;49.574;11.170;2023-06-22T13:35:52;5.63;;;4.30;;
13408;SDS011;6775;49.574;11.170;2023-06-22T13:38:20;4.13;;;3.73;;
13408;SDS011;6775;49.574;11.170;2023-06-22T13:40:48;10.50;;;5.20;;
13408;SDS011;6775;49.574;11.170;2023-06-22T13:43:16;6.63;;;4.67;;
13408;SDS011;6775;49.574;11.170;2023-06-22T13:45:46;8.67;;;5.13;;
13408;SDS011;6775;49.574;11.170;2023-06-22T13:48:13;7.70;;;5.00;;
13408;SDS011;6775;49.574;11.170;2023-06-22T13:50:41;9.23;;;4.57;;
13408;SDS011;6775;49.574;11.170;2023-06-22T13:53:10;10.43;;;5.30;;
13408;SDS011;6775;49.574;11.170;2023-06-22T13:55:37;7.33;;;4.33;;
13408;SDS011;6775;49.574;11.170;2023-06-22T13:58:06;6.47;;;4.20;;
13408;SDS011;6775;49.574;11.170;2023-06-22T14:00:34;9.93;;;4.87;;
13408;SDS011;6775;49.574;11.170;2023-06-22T14:03:03;7.60;;;4.43;;
13408;SDS011;6775;49.574;11.170;2023-06-22T14:05:31;6.57;;;4.60;;
13408;SDS011;6775;49.574;11.170;2023-06-22T14:07:59;8.10;;;4.60;;
13408;SDS011;6775;49.574;11.170;2023-06-22T14:10:28;7.93;;;4.93;;
13408;SDS011;6775;49.574;11.170;2023-06-22T14:12:56;7.87;;;4.70;;
13408;SDS011;6775;49.574;11.170;2023-06-22T14:15:26;7.70;;;5.07;;
13408;SDS011;6775;49.574;11.170;2023-06-22T14:17:54;10.80;;;4.77;;
13408;SDS011;6775;49.574;11.170;2023-06-22T14:20:23;7.17;;;4.77;;
13408;SDS011;6775;49.574;11.170;2023-06-22T14:22:51;9.20;;;4.80;;
13408;SDS011;6775;49.574;11.170;2023-06-22T14:25:18;7.50;;;4.20;;
13408;SDS011;6775;49.574;11.170;2023-06-22T14:27:46;5.83;;;4.60;;
13408;SDS011;6775;49.574;11.170;2023-06-22T14:30:14;8.73;;;4.90;;
13408;SDS011;6775;49.574;11.170;2023-06-22T14:32:43;6.17;;;4.40;;
13408;SDS011;6775;49.574;11.170;2023-06-22T14:35:11;5.03;;;4.37;;
13408;SDS011;6775;49.574;11.170;2023-06-22T14:37:40;6.70;;;4.47;;
13408;SDS011;6775;49.574;11.170;2023-06-22T14:40:08;8.73;;;4.80;;
13408;SDS011;6775;49.574;11.170;2023-06-22T14:42:36;6.50;;;4.70;;
13408;SDS011;6775;49.574;11.170;2023-06-22T14:45:05;6.23;;;4.07;;
13408;SDS011;6775;49.574;11.170;2023-06-22T14:47:33;8.43;;;4.10;;
13408;SDS011;6775;49.574;11.170;2023-06-22T14:50:01;8.53;;;4.90;;
13408;SDS011;6775;49.574;11.170;2023-06-22T14:52:29;7.57;;;5.13;;
13408;SDS011;6775;49.574;11.170;2023-06-22T14:54:59;7.93;;;4.60;;
13408;SDS011;6775;49.574;11.170;2023-06-22T14:57:26;6.73;;;4.30;;